sensor_id;sensor_type;location;lat;lon;timestamp;temperature;humidity
47861;HTU21D;33620;52.340;5.984;2024-03-17T00:00:16;5.37;82.60
47861;HTU21D;33620;52.340;5.984;2024-03-17T00:02:44;5.33;82.89
47861;HTU21D;33620;52.340;5.984;2024-03-17T00:05:09;5.34;82.77
47861;HTU21D;33620;52.340;5.984;2024-03-17T00:07:34;5.24;82.84
47861;HTU21D;33620;52.340;5.984;2024-03-17T00:10:00;5.19;83.07
47861;HTU21D;33620;52.340;5.984;2024-03-17T00:12:25;5.13;83.45
47861;HTU21D;33620;52.340;5.984;2024-03-17T00:14:51;5.12;83.71
47861;HTU21D;33620;52.340;5.984;2024-03-17T00:17:16;5.13;83.96
47861;HTU21D;33620;52.340;5.984;2024-03-17T00:19:42;5.11;84.13
47861;HTU21D;33620;52.340;5.984;2024-03-17T00:22:07;5.18;84.15
47861;HTU21D;33620;52.340;5.984;2024-03-17T00:24:35;5.22;84.16
47861;HTU21D;33620;52.340;5.984;2024-03-17T00:27:03;5.24;84.03
47861;HTU21D;33620;52.340;5.984;2024-03-17T00:29:28;5.27;83.85
47861;HTU21D;33620;52.340;5.984;2024-03-17T00:31:54;5.23;83.45
47861;HTU21D;33620;52.340;5.984;2024-03-17T00:34:20;5.15;83.48
47861;HTU21D;33620;52.340;5.984;2024-03-17T00:36:45;5.09;83.65
47861;HTU21D;33620;52.340;5.984;2024-03-17T00:39:11;5.05;83.94
47861;HTU21D;33620;52.340;5.984;2024-03-17T00:41:37;5.04;84.15
47861;HTU21D;33620;52.340;5.984;2024-03-17T00:44:03;5.08;84.44
47861;HTU21D;33620;52.340;5.984;2024-03-17T00:46:28;5.12;84.52
47861;HTU21D;33620;52.340;5.984;2024-03-17T00:48:54;5.19;84.66
47861;HTU21D;33620;52.340;5.984;2024-03-17T00:51:19;5.21;84.62
47861;HTU21D;33620;52.340;5.984;2024-03-17T00:53:45;5.22;84.55
47861;HTU21D;33620;52.340;5.984;2024-03-17T00:56:10;5.24;84.42
47861;HTU21D;33620;52.340;5.984;2024-03-17T00:58:35;5.19;84.22
47861;HTU21D;33620;52.340;5.984;2024-03-17T01:01:01;5.13;84.30
47861;HTU21D;33620;52.340;5.984;2024-03-17T01:03:27;5.08;84.37
47861;HTU21D;33620;52.340;5.984;2024-03-17T01:05:53;5.06;84.61
47861;HTU21D;33620;52.340;5.984;2024-03-17T01:08:19;5.06;84.89
47861;HTU21D;33620;52.340;5.984;2024-03-17T01:10:46;5.09;84.90
47861;HTU21D;33620;52.340;5.984;2024-03-17T01:13:15;5.10;84.68
47861;HTU21D;33620;52.340;5.984;2024-03-17T01:15:40;5.05;84.41
47861;HTU21D;33620;52.340;5.984;2024-03-17T01:18:06;5.01;84.58
47861;HTU21D;33620;52.340;5.984;2024-03-17T01:20:32;5.05;84.92
47861;HTU21D;33620;52.340;5.984;2024-03-17T01:22:59;5.07;84.84
47861;HTU21D;33620;52.340;5.984;2024-03-17T01:25:24;5.10;84.91
47861;HTU21D;33620;52.340;5.984;2024-03-17T01:27:54;5.11;84.80
47861;HTU21D;33620;52.340;5.984;2024-03-17T01:30:20;5.05;84.45
47861;HTU21D;33620;52.340;5.984;2024-03-17T01:32:46;5.01;84.67
47861;HTU21D;33620;52.340;5.984;2024-03-17T01:35:11;5.00;84.79
47861;HTU21D;33620;52.340;5.984;2024-03-17T01:37:37;4.96;84.62
47861;HTU21D;33620;52.340;5.984;2024-03-17T01:40:03;4.94;84.71
47861;HTU21D;33620;52.340;5.984;2024-03-17T01:42:33;4.98;84.93
47861;HTU21D;33620;52.340;5.984;2024-03-17T01:44:59;5.01;84.87
47861;HTU21D;33620;52.340;5.984;2024-03-17T01:47:24;5.04;84.95
47861;HTU21D;33620;52.340;5.984;2024-03-17T01:49:51;5.03;84.87
47861;HTU21D;33620;52.340;5.984;2024-03-17T01:52:17;5.01;85.02
47861;HTU21D;33620;52.340;5.984;2024-03-17T01:54:44;4.98;85.07
47861;HTU21D;33620;52.340;5.984;2024-03-17T01:57:11;4.94;84.85
47861;HTU21D;33620;52.340;5.984;2024-03-17T01:59:36;4.91;84.99
47861;HTU21D;33620;52.340;5.984;2024-03-17T02:02:02;4.88;85.04
47861;HTU21D;33620;52.340;5.984;2024-03-17T02:04:28;4.89;85.20
47861;HTU21D;33620;52.340;5.984;2024-03-17T02:06:54;4.89;85.25
47861;HTU21D;33620;52.340;5.984;2024-03-17T02:09:19;4.90;85.28
47861;HTU21D;33620;52.340;5.984;2024-03-17T02:11:45;4.93;85.30
47861;HTU21D;33620;52.340;5.984;2024-03-17T02:14:11;4.94;85.25
47861;HTU21D;33620;52.340;5.984;2024-03-17T02:16:38;4.94;85.25
47861;HTU21D;33620;52.340;5.984;2024-03-17T02:19:04;4.93;85.11
47861;HTU21D;33620;52.340;5.984;2024-03-17T02:21:29;4.88;85.01
47861;HTU21D;33620;52.340;5.984;2024-03-17T02:23:55;4.84;85.33
47861;HTU21D;33620;52.340;5.984;2024-03-17T02:26:21;4.86;85.45
47861;HTU21D;33620;52.340;5.984;2024-03-17T02:28:48;4.87;85.59
47861;HTU21D;33620;52.340;5.984;2024-03-17T02:31:15;4.89;85.51
47861;HTU21D;33620;52.340;5.984;2024-03-17T02:33:41;4.86;85.34
47861;HTU21D;33620;52.340;5.984;2024-03-17T02:36:07;4.84;85.54
47861;HTU21D;33620;52.340;5.984;2024-03-17T02:38:34;4.84;85.51
47861;HTU21D;33620;52.340;5.984;2024-03-17T02:41:18;4.79;85.48
47861;HTU21D;33620;52.340;5.984;2024-03-17T02:43:44;4.79;85.77
47861;HTU21D;33620;52.340;5.984;2024-03-17T02:46:17;4.79;85.74
47861;HTU21D;33620;52.340;5.984;2024-03-17T02:48:46;4.75;85.71
47861;HTU21D;33620;52.340;5.984;2024-03-17T02:51:14;4.72;85.85
47861;HTU21D;33620;52.340;5.984;2024-03-17T02:53:41;4.71;86.16
47861;HTU21D;33620;52.340;5.984;2024-03-17T02:56:06;4.73;86.35
47861;HTU21D;33620;52.340;5.984;2024-03-17T02:58:34;4.77;86.50
47861;HTU21D;33620;52.340;5.984;2024-03-17T03:01:00;4.79;86.58
47861;HTU21D;33620;52.340;5.984;2024-03-17T03:03:25;4.81;86.75
47861;HTU21D;33620;52.340;5.984;2024-03-17T03:05:51;4.87;86.86
47861;HTU21D;33620;52.340;5.984;2024-03-17T03:08:17;4.92;86.85
47861;HTU21D;33620;52.340;5.984;2024-03-17T03:10:44;4.95;86.72
47861;HTU21D;33620;52.340;5.984;2024-03-17T03:13:10;4.97;86.81
47861;HTU21D;33620;52.340;5.984;2024-03-17T03:15:36;5.05;87.00
47861;HTU21D;33620;52.340;5.984;2024-03-17T03:18:01;5.06;87.01
47861;HTU21D;33620;52.340;5.984;2024-03-17T03:20:27;5.08;87.01
47861;HTU21D;33620;52.340;5.984;2024-03-17T03:22:53;5.12;87.16
47861;HTU21D;33620;52.340;5.984;2024-03-17T03:25:19;5.16;87.15
47861;HTU21D;33620;52.340;5.984;2024-03-17T03:27:44;5.19;87.23
47861;HTU21D;33620;52.340;5.984;2024-03-17T03:30:10;5.19;87.19
47861;HTU21D;33620;52.340;5.984;2024-03-17T03:32:35;5.22;87.25
47861;HTU21D;33620;52.340;5.984;2024-03-17T03:35:04;5.25;87.16
47861;HTU21D;33620;52.340;5.984;2024-03-17T03:37:30;5.24;87.10
47861;HTU21D;33620;52.340;5.984;2024-03-17T03:39:55;5.26;87.25
47861;HTU21D;33620;52.340;5.984;2024-03-17T03:42:21;5.31;87.13
47861;HTU21D;33620;52.340;5.984;2024-03-17T03:44:48;5.30;87.14
47861;HTU21D;33620;52.340;5.984;2024-03-17T03:47:14;5.31;87.25
47861;HTU21D;33620;52.340;5.984;2024-03-17T03:49:40;5.33;87.22
47861;HTU21D;33620;52.340;5.984;2024-03-17T03:52:05;5.36;87.38
47861;HTU21D;33620;52.340;5.984;2024-03-17T03:54:31;5.39;87.41
47861;HTU21D;33620;52.340;5.984;2024-03-17T03:56:56;5.40;87.50
47861;HTU21D;33620;52.340;5.984;2024-03-17T03:59:21;5.41;87.32
47861;HTU21D;33620;52.340;5.984;2024-03-17T04:01:47;5.45;87.34
47861;HTU21D;33620;52.340;5.984;2024-03-17T04:04:14;5.47;87.28
47861;HTU21D;33620;52.340;5.984;2024-03-17T04:06:39;5.47;87.18
47861;HTU21D;33620;52.340;5.984;2024-03-17T04:09:05;5.48;86.98
47861;HTU21D;33620;52.340;5.984;2024-03-17T04:11:33;5.49;87.06
47861;HTU21D;33620;52.340;5.984;2024-03-17T04:13:59;5.49;87.03
47861;HTU21D;33620;52.340;5.984;2024-03-17T04:16:26;5.50;87.18
47861;HTU21D;33620;52.340;5.984;2024-03-17T04:18:51;5.49;87.28
47861;HTU21D;33620;52.340;5.984;2024-03-17T04:21:17;5.51;87.19
47861;HTU21D;33620;52.340;5.984;2024-03-17T04:23:42;5.52;87.12
47861;HTU21D;33620;52.340;5.984;2024-03-17T04:26:07;5.53;87.09
47861;HTU21D;33620;52.340;5.984;2024-03-17T04:28:33;5.54;86.99
47861;HTU21D;33620;52.340;5.984;2024-03-17T04:31:05;5.54;87.18
47861;HTU21D;33620;52.340;5.984;2024-03-17T04:33:32;5.55;87.23
47861;HTU21D;33620;52.340;5.984;2024-03-17T04:35:57;5.56;87.30
47861;HTU21D;33620;52.340;5.984;2024-03-17T04:38:22;5.55;87.41
47861;HTU21D;33620;52.340;5.984;2024-03-17T04:40:48;5.56;87.44
47861;HTU21D;33620;52.340;5.984;2024-03-17T04:43:13;5.57;87.51
47861;HTU21D;33620;52.340;5.984;2024-03-17T04:45:39;5.57;87.64
47861;HTU21D;33620;52.340;5.984;2024-03-17T04:48:05;5.57;87.48
47861;HTU21D;33620;52.340;5.984;2024-03-17T04:50:31;5.60;87.67
47861;HTU21D;33620;52.340;5.984;2024-03-17T04:52:58;5.63;87.70
47861;HTU21D;33620;52.340;5.984;2024-03-17T04:55:24;5.66;87.44
47861;HTU21D;33620;52.340;5.984;2024-03-17T04:57:49;5.65;87.22
47861;HTU21D;33620;52.340;5.984;2024-03-17T05:00:14;5.63;87.23
47861;HTU21D;33620;52.340;5.984;2024-03-17T05:02:43;5.63;87.25
47861;HTU21D;33620;52.340;5.984;2024-03-17T05:05:08;5.63;87.54
47861;HTU21D;33620;52.340;5.984;2024-03-17T05:07:35;5.65;87.68
47861;HTU21D;33620;52.340;5.984;2024-03-17T05:10:01;5.66;87.78
47861;HTU21D;33620;52.340;5.984;2024-03-17T05:12:26;5.68;87.84
47861;HTU21D;33620;52.340;5.984;2024-03-17T05:14:52;5.69;87.81
47861;HTU21D;33620;52.340;5.984;2024-03-17T05:17:17;5.71;87.57
47861;HTU21D;33620;52.340;5.984;2024-03-17T05:19:43;5.72;87.41
47861;HTU21D;33620;52.340;5.984;2024-03-17T05:22:08;5.75;87.41
47861;HTU21D;33620;52.340;5.984;2024-03-17T05:24:33;5.77;87.55
47861;HTU21D;33620;52.340;5.984;2024-03-17T05:26:59;5.77;87.67
47861;HTU21D;33620;52.340;5.984;2024-03-17T05:29:24;5.76;87.87
47861;HTU21D;33620;52.340;5.984;2024-03-17T05:31:50;5.78;88.09
47861;HTU21D;33620;52.340;5.984;2024-03-17T05:34:15;5.82;88.15
47861;HTU21D;33620;52.340;5.984;2024-03-17T05:36:40;5.82;88.27
47861;HTU21D;33620;52.340;5.984;2024-03-17T05:39:06;5.83;88.48
47861;HTU21D;33620;52.340;5.984;2024-03-17T05:41:31;5.87;88.66
47861;HTU21D;33620;52.340;5.984;2024-03-17T05:43:56;5.92;88.65
47861;HTU21D;33620;52.340;5.984;2024-03-17T05:46:24;5.93;88.57
47861;HTU21D;33620;52.340;5.984;2024-03-17T05:48:51;5.93;88.44
47861;HTU21D;33620;52.340;5.984;2024-03-17T05:51:16;5.97;88.44
47861;HTU21D;33620;52.340;5.984;2024-03-17T05:53:42;5.96;88.38
47861;HTU21D;33620;52.340;5.984;2024-03-17T05:56:10;5.97;88.52
47861;HTU21D;33620;52.340;5.984;2024-03-17T05:58:39;5.99;88.57
47861;HTU21D;33620;52.340;5.984;2024-03-17T06:01:05;6.00;88.50
47861;HTU21D;33620;52.340;5.984;2024-03-17T06:03:32;5.99;88.42
47861;HTU21D;33620;52.340;5.984;2024-03-17T06:06:01;5.96;88.44
47861;HTU21D;33620;52.340;5.984;2024-03-17T06:08:26;5.94;88.64
47861;HTU21D;33620;52.340;5.984;2024-03-17T06:10:51;5.95;88.86
47861;HTU21D;33620;52.340;5.984;2024-03-17T06:13:17;5.99;88.77
47861;HTU21D;33620;52.340;5.984;2024-03-17T06:15:43;6.01;88.78
47861;HTU21D;33620;52.340;5.984;2024-03-17T06:18:11;6.04;88.70
47861;HTU21D;33620;52.340;5.984;2024-03-17T06:20:43;6.05;88.71
47861;HTU21D;33620;52.340;5.984;2024-03-17T06:23:08;6.06;88.70
47861;HTU21D;33620;52.340;5.984;2024-03-17T06:28:09;6.11;88.67
47861;HTU21D;33620;52.340;5.984;2024-03-17T06:30:41;6.14;88.71
47861;HTU21D;33620;52.340;5.984;2024-03-17T06:33:07;6.15;88.63
47861;HTU21D;33620;52.340;5.984;2024-03-17T06:35:36;6.21;88.42
47861;HTU21D;33620;52.340;5.984;2024-03-17T06:38:01;6.23;88.33
47861;HTU21D;33620;52.340;5.984;2024-03-17T06:40:27;6.24;88.15
47861;HTU21D;33620;52.340;5.984;2024-03-17T06:42:53;6.25;88.18
47861;HTU21D;33620;52.340;5.984;2024-03-17T06:45:19;6.28;88.28
47861;HTU21D;33620;52.340;5.984;2024-03-17T06:47:46;6.33;88.28
47861;HTU21D;33620;52.340;5.984;2024-03-17T06:50:11;6.34;88.19
47861;HTU21D;33620;52.340;5.984;2024-03-17T06:52:37;6.35;88.24
47861;HTU21D;33620;52.340;5.984;2024-03-17T06:55:02;6.41;88.26
47861;HTU21D;33620;52.340;5.984;2024-03-17T06:57:28;6.46;88.25
47861;HTU21D;33620;52.340;5.984;2024-03-17T06:59:53;6.53;88.18
47861;HTU21D;33620;52.340;5.984;2024-03-17T07:02:19;6.58;88.23
47861;HTU21D;33620;52.340;5.984;2024-03-17T07:04:45;6.63;88.23
47861;HTU21D;33620;52.340;5.984;2024-03-17T07:07:12;6.67;88.41
47861;HTU21D;33620;52.340;5.984;2024-03-17T07:09:38;6.72;88.29
47861;HTU21D;33620;52.340;5.984;2024-03-17T07:12:08;6.75;88.44
47861;HTU21D;33620;52.340;5.984;2024-03-17T07:14:33;6.78;88.22
47861;HTU21D;33620;52.340;5.984;2024-03-17T07:16:59;6.82;88.34
47861;HTU21D;33620;52.340;5.984;2024-03-17T07:19:24;6.87;88.42
47861;HTU21D;33620;52.340;5.984;2024-03-17T07:21:50;6.91;88.44
47861;HTU21D;33620;52.340;5.984;2024-03-17T07:24:15;6.98;88.63
47861;HTU21D;33620;52.340;5.984;2024-03-17T07:26:40;7.08;88.72
47861;HTU21D;33620;52.340;5.984;2024-03-17T07:29:06;7.12;88.42
47861;HTU21D;33620;52.340;5.984;2024-03-17T07:31:33;7.16;88.39
47861;HTU21D;33620;52.340;5.984;2024-03-17T07:33:58;7.23;88.35
47861;HTU21D;33620;52.340;5.984;2024-03-17T07:36:24;7.26;88.22
47861;HTU21D;33620;52.340;5.984;2024-03-17T07:38:49;7.30;88.22
47861;HTU21D;33620;52.340;5.984;2024-03-17T07:41:16;7.33;88.12
47861;HTU21D;33620;52.340;5.984;2024-03-17T07:43:41;7.40;88.22
47861;HTU21D;33620;52.340;5.984;2024-03-17T07:46:08;7.45;88.23
47861;HTU21D;33620;52.340;5.984;2024-03-17T07:48:41;7.48;88.05
47861;HTU21D;33620;52.340;5.984;2024-03-17T07:51:07;7.52;88.02
47861;HTU21D;33620;52.340;5.984;2024-03-17T07:53:34;7.54;87.93
47861;HTU21D;33620;52.340;5.984;2024-03-17T07:56:02;7.56;88.10
47861;HTU21D;33620;52.340;5.984;2024-03-17T07:58:29;7.62;88.09
47861;HTU21D;33620;52.340;5.984;2024-03-17T08:00:59;7.69;88.19
47861;HTU21D;33620;52.340;5.984;2024-03-17T08:03:26;7.75;88.05
47861;HTU21D;33620;52.340;5.984;2024-03-17T08:05:51;7.82;88.19
47861;HTU21D;33620;52.340;5.984;2024-03-17T08:08:18;7.86;87.98
47861;HTU21D;33620;52.340;5.984;2024-03-17T08:10:43;7.92;87.86
47861;HTU21D;33620;52.340;5.984;2024-03-17T08:13:08;7.99;87.63
47861;HTU21D;33620;52.340;5.984;2024-03-17T08:15:34;8.05;87.52
47861;HTU21D;33620;52.340;5.984;2024-03-17T08:18:00;8.12;87.32
47861;HTU21D;33620;52.340;5.984;2024-03-17T08:20:25;8.18;87.20
47861;HTU21D;33620;52.340;5.984;2024-03-17T08:22:50;8.23;86.90
47861;HTU21D;33620;52.340;5.984;2024-03-17T08:25:16;8.29;86.22
47861;HTU21D;33620;52.340;5.984;2024-03-17T08:27:41;8.36;86.04
47861;HTU21D;33620;52.340;5.984;2024-03-17T08:30:08;8.46;86.12
47861;HTU21D;33620;52.340;5.984;2024-03-17T08:32:35;8.53;85.87
47861;HTU21D;33620;52.340;5.984;2024-03-17T08:35:00;8.63;85.84
47861;HTU21D;33620;52.340;5.984;2024-03-17T08:37:26;8.73;85.26
47861;HTU21D;33620;52.340;5.984;2024-03-17T08:39:52;8.81;84.80
47861;HTU21D;33620;52.340;5.984;2024-03-17T08:42:17;8.88;84.39
47861;HTU21D;33620;52.340;5.984;2024-03-17T08:44:46;8.95;84.14
47861;HTU21D;33620;52.340;5.984;2024-03-17T08:47:11;9.00;83.87
47861;HTU21D;33620;52.340;5.984;2024-03-17T08:49:36;9.04;84.15
47861;HTU21D;33620;52.340;5.984;2024-03-17T08:52:02;9.07;82.97
47861;HTU21D;33620;52.340;5.984;2024-03-17T08:54:27;9.10;82.37
47861;HTU21D;33620;52.340;5.984;2024-03-17T08:56:52;9.14;81.80
47861;HTU21D;33620;52.340;5.984;2024-03-17T08:59:18;9.19;81.65
47861;HTU21D;33620;52.340;5.984;2024-03-17T09:01:43;9.23;81.92
47861;HTU21D;33620;52.340;5.984;2024-03-17T09:04:09;9.33;81.88
47861;HTU21D;33620;52.340;5.984;2024-03-17T09:06:36;9.41;81.61
47861;HTU21D;33620;52.340;5.984;2024-03-17T09:09:02;9.48;81.59
47861;HTU21D;33620;52.340;5.984;2024-03-17T09:11:28;9.54;81.25
47861;HTU21D;33620;52.340;5.984;2024-03-17T09:13:54;9.60;81.13
47861;HTU21D;33620;52.340;5.984;2024-03-17T09:16:20;9.68;81.28
47861;HTU21D;33620;52.340;5.984;2024-03-17T09:18:47;9.71;80.11
47861;HTU21D;33620;52.340;5.984;2024-03-17T09:21:14;9.74;79.90
47861;HTU21D;33620;52.340;5.984;2024-03-17T09:23:41;9.78;79.70
47861;HTU21D;33620;52.340;5.984;2024-03-17T09:26:08;9.85;79.91
47861;HTU21D;33620;52.340;5.984;2024-03-17T09:28:35;9.93;80.05
47861;HTU21D;33620;52.340;5.984;2024-03-17T09:31:01;9.95;79.45
47861;HTU21D;33620;52.340;5.984;2024-03-17T09:33:27;10.03;79.85
47861;HTU21D;33620;52.340;5.984;2024-03-17T09:35:54;10.08;79.98
47861;HTU21D;33620;52.340;5.984;2024-03-17T09:38:20;10.08;79.14
47861;HTU21D;33620;52.340;5.984;2024-03-17T09:40:47;10.13;79.21
47861;HTU21D;33620;52.340;5.984;2024-03-17T09:43:15;10.11;78.55
47861;HTU21D;33620;52.340;5.984;2024-03-17T09:45:40;10.11;78.83
47861;HTU21D;33620;52.340;5.984;2024-03-17T09:48:06;10.13;79.06
47861;HTU21D;33620;52.340;5.984;2024-03-17T09:50:33;10.12;78.34
47861;HTU21D;33620;52.340;5.984;2024-03-17T09:52:59;10.10;78.25
47861;HTU21D;33620;52.340;5.984;2024-03-17T09:55:27;10.09;78.11
47861;HTU21D;33620;52.340;5.984;2024-03-17T09:57:52;10.08;78.14
47861;HTU21D;33620;52.340;5.984;2024-03-17T10:00:18;10.06;78.48
47861;HTU21D;33620;52.340;5.984;2024-03-17T10:02:44;10.07;78.26
47861;HTU21D;33620;52.340;5.984;2024-03-17T10:05:24;10.08;78.36
47861;HTU21D;33620;52.340;5.984;2024-03-17T10:07:50;10.10;78.48
47861;HTU21D;33620;52.340;5.984;2024-03-17T10:10:17;10.12;78.70
47861;HTU21D;33620;52.340;5.984;2024-03-17T10:12:43;10.12;79.19
47861;HTU21D;33620;52.340;5.984;2024-03-17T10:15:12;10.11;78.60
47861;HTU21D;33620;52.340;5.984;2024-03-17T10:17:38;10.09;78.27
47861;HTU21D;33620;52.340;5.984;2024-03-17T10:20:17;10.13;78.55
47861;HTU21D;33620;52.340;5.984;2024-03-17T10:23:02;10.18;78.72
47861;HTU21D;33620;52.340;5.984;2024-03-17T10:25:30;10.23;78.59
47861;HTU21D;33620;52.340;5.984;2024-03-17T10:27:56;10.27;78.53
47861;HTU21D;33620;52.340;5.984;2024-03-17T10:30:23;10.28;77.69
47861;HTU21D;33620;52.340;5.984;2024-03-17T10:32:57;10.29;76.84
47861;HTU21D;33620;52.340;5.984;2024-03-17T10:35:30;10.36;77.31
47861;HTU21D;33620;52.340;5.984;2024-03-17T10:38:00;10.39;77.39
47861;HTU21D;33620;52.340;5.984;2024-03-17T10:40:26;10.45;77.24
47861;HTU21D;33620;52.340;5.984;2024-03-17T10:42:52;10.52;77.20
47861;HTU21D;33620;52.340;5.984;2024-03-17T10:45:18;10.60;77.21
47861;HTU21D;33620;52.340;5.984;2024-03-17T10:47:48;10.66;76.52
47861;HTU21D;33620;52.340;5.984;2024-03-17T10:50:20;10.73;75.44
47861;HTU21D;33620;52.340;5.984;2024-03-17T10:52:47;10.80;75.36
47861;HTU21D;33620;52.340;5.984;2024-03-17T10:55:23;10.86;75.50
47861;HTU21D;33620;52.340;5.984;2024-03-17T10:57:50;10.94;75.31
47861;HTU21D;33620;52.340;5.984;2024-03-17T11:00:22;10.99;75.05
47861;HTU21D;33620;52.340;5.984;2024-03-17T11:02:54;11.04;74.70
47861;HTU21D;33620;52.340;5.984;2024-03-17T11:05:25;11.08;74.28
47861;HTU21D;33620;52.340;5.984;2024-03-17T11:07:55;11.10;73.17
47861;HTU21D;33620;52.340;5.984;2024-03-17T11:10:27;11.14;73.02
47861;HTU21D;33620;52.340;5.984;2024-03-17T11:12:57;11.18;73.88
47861;HTU21D;33620;52.340;5.984;2024-03-17T11:17:51;11.26;74.34
47861;HTU21D;33620;52.340;5.984;2024-03-17T11:20:27;11.29;74.31
47861;HTU21D;33620;52.340;5.984;2024-03-17T11:22:55;11.32;73.63
47861;HTU21D;33620;52.340;5.984;2024-03-17T11:30:52;11.39;71.45
47861;HTU21D;33620;52.340;5.984;2024-03-17T11:47:04;11.45;71.10
47861;HTU21D;33620;52.340;5.984;2024-03-17T11:49:34;11.51;71.08
47861;HTU21D;33620;52.340;5.984;2024-03-17T11:52:03;11.55;71.01
47861;HTU21D;33620;52.340;5.984;2024-03-17T11:54:31;11.58;71.03
47861;HTU21D;33620;52.340;5.984;2024-03-17T11:57:02;11.63;71.45
47861;HTU21D;33620;52.340;5.984;2024-03-17T11:59:28;11.66;70.65
47861;HTU21D;33620;52.340;5.984;2024-03-17T12:01:54;11.67;70.66
47861;HTU21D;33620;52.340;5.984;2024-03-17T12:04:21;11.68;70.05
47861;HTU21D;33620;52.340;5.984;2024-03-17T12:06:49;11.69;70.39
47861;HTU21D;33620;52.340;5.984;2024-03-17T12:09:31;11.73;70.58
47861;HTU21D;33620;52.340;5.984;2024-03-17T12:14:25;11.89;71.00
47861;HTU21D;33620;52.340;5.984;2024-03-17T12:16:53;12.01;71.46
47861;HTU21D;33620;52.340;5.984;2024-03-17T12:19:19;12.12;71.38
47861;HTU21D;33620;52.340;5.984;2024-03-17T12:21:48;12.19;70.90
47861;HTU21D;33620;52.340;5.984;2024-03-17T12:24:16;12.26;70.85
47861;HTU21D;33620;52.340;5.984;2024-03-17T12:26:43;12.25;70.00
47861;HTU21D;33620;52.340;5.984;2024-03-17T12:29:26;12.20;69.10
47861;HTU21D;33620;52.340;5.984;2024-03-17T12:31:57;12.17;68.81
47861;HTU21D;33620;52.340;5.984;2024-03-17T12:34:25;12.16;69.17
47861;HTU21D;33620;52.340;5.984;2024-03-17T12:36:52;12.15;69.23
47861;HTU21D;33620;52.340;5.984;2024-03-17T12:39:33;12.16;69.42
47861;HTU21D;33620;52.340;5.984;2024-03-17T12:42:07;12.17;69.10
47861;HTU21D;33620;52.340;5.984;2024-03-17T12:44:37;12.18;69.45
47861;HTU21D;33620;52.340;5.984;2024-03-17T12:47:07;12.21;69.58
47861;HTU21D;33620;52.340;5.984;2024-03-17T12:49:34;12.26;69.65
47861;HTU21D;33620;52.340;5.984;2024-03-17T12:52:00;12.32;69.94
47861;HTU21D;33620;52.340;5.984;2024-03-17T12:54:27;12.36;69.36
47861;HTU21D;33620;52.340;5.984;2024-03-17T12:57:08;12.43;69.28
47861;HTU21D;33620;52.340;5.984;2024-03-17T12:59:52;12.48;68.89
47861;HTU21D;33620;52.340;5.984;2024-03-17T13:02:42;12.51;69.32
47861;HTU21D;33620;52.340;5.984;2024-03-17T13:05:14;12.48;69.11
47861;HTU21D;33620;52.340;5.984;2024-03-17T13:07:40;12.50;69.43
47861;HTU21D;33620;52.340;5.984;2024-03-17T13:10:06;12.46;69.14
47861;HTU21D;33620;52.340;5.984;2024-03-17T13:12:33;12.46;69.42
47861;HTU21D;33620;52.340;5.984;2024-03-17T13:14:58;12.43;69.49
47861;HTU21D;33620;52.340;5.984;2024-03-17T13:17:24;12.44;69.84
47861;HTU21D;33620;52.340;5.984;2024-03-17T13:19:49;12.45;69.61
47861;HTU21D;33620;52.340;5.984;2024-03-17T13:22:14;12.48;69.65
47861;HTU21D;33620;52.340;5.984;2024-03-17T13:24:40;12.51;69.39
47861;HTU21D;33620;52.340;5.984;2024-03-17T13:27:06;12.55;69.87
47861;HTU21D;33620;52.340;5.984;2024-03-17T13:29:33;12.55;69.59
47861;HTU21D;33620;52.340;5.984;2024-03-17T13:32:01;12.57;69.87
47861;HTU21D;33620;52.340;5.984;2024-03-17T13:34:26;12.59;69.77
47861;HTU21D;33620;52.340;5.984;2024-03-17T13:36:55;12.57;70.13
47861;HTU21D;33620;52.340;5.984;2024-03-17T13:39:21;12.55;69.55
47861;HTU21D;33620;52.340;5.984;2024-03-17T13:41:47;12.53;70.01
47861;HTU21D;33620;52.340;5.984;2024-03-17T13:44:14;12.49;69.45
47861;HTU21D;33620;52.340;5.984;2024-03-17T13:46:40;12.47;69.81
47861;HTU21D;33620;52.340;5.984;2024-03-17T13:49:09;12.47;70.27
47861;HTU21D;33620;52.340;5.984;2024-03-17T13:51:35;12.47;69.97
47861;HTU21D;33620;52.340;5.984;2024-03-17T13:54:00;12.44;69.67
47861;HTU21D;33620;52.340;5.984;2024-03-17T13:56:26;12.45;70.53
47861;HTU21D;33620;52.340;5.984;2024-03-17T13:58:52;12.49;71.14
47861;HTU21D;33620;52.340;5.984;2024-03-17T14:01:17;12.48;70.56
47861;HTU21D;33620;52.340;5.984;2024-03-17T14:03:43;12.46;70.95
47861;HTU21D;33620;52.340;5.984;2024-03-17T14:06:09;12.45;70.75
47861;HTU21D;33620;52.340;5.984;2024-03-17T14:08:34;12.45;70.71
47861;HTU21D;33620;52.340;5.984;2024-03-17T14:11:01;12.47;70.72
47861;HTU21D;33620;52.340;5.984;2024-03-17T14:13:26;12.48;70.80
47861;HTU21D;33620;52.340;5.984;2024-03-17T14:15:55;12.49;70.48
47861;HTU21D;33620;52.340;5.984;2024-03-17T14:18:21;12.52;70.56
47861;HTU21D;33620;52.340;5.984;2024-03-17T14:20:46;12.49;70.53
47861;HTU21D;33620;52.340;5.984;2024-03-17T14:23:12;12.50;71.02
47861;HTU21D;33620;52.340;5.984;2024-03-17T14:25:37;12.50;70.90
47861;HTU21D;33620;52.340;5.984;2024-03-17T14:28:06;12.49;70.43
47861;HTU21D;33620;52.340;5.984;2024-03-17T14:30:32;12.50;70.74
47861;HTU21D;33620;52.340;5.984;2024-03-17T14:32:58;12.51;71.35
47861;HTU21D;33620;52.340;5.984;2024-03-17T14:35:24;12.52;71.46
47861;HTU21D;33620;52.340;5.984;2024-03-17T14:37:52;12.51;71.14
47861;HTU21D;33620;52.340;5.984;2024-03-17T14:40:18;12.52;71.36
47861;HTU21D;33620;52.340;5.984;2024-03-17T14:42:49;12.50;71.51
47861;HTU21D;33620;52.340;5.984;2024-03-17T14:45:16;12.51;71.61
47861;HTU21D;33620;52.340;5.984;2024-03-17T14:47:41;12.48;71.30
47861;HTU21D;33620;52.340;5.984;2024-03-17T14:50:07;12.47;71.13
47861;HTU21D;33620;52.340;5.984;2024-03-17T14:52:33;12.45;71.11
47861;HTU21D;33620;52.340;5.984;2024-03-17T14:54:59;12.42;70.93
47861;HTU21D;33620;52.340;5.984;2024-03-17T14:57:25;12.43;71.14
47861;HTU21D;33620;52.340;5.984;2024-03-17T14:59:51;12.45;71.72
47861;HTU21D;33620;52.340;5.984;2024-03-17T15:02:16;12.43;71.67
47861;HTU21D;33620;52.340;5.984;2024-03-17T15:04:42;12.44;71.89
47861;HTU21D;33620;52.340;5.984;2024-03-17T15:07:07;12.44;71.96
47861;HTU21D;33620;52.340;5.984;2024-03-17T15:09:34;12.44;72.13
47861;HTU21D;33620;52.340;5.984;2024-03-17T15:11:59;12.43;71.50
47861;HTU21D;33620;52.340;5.984;2024-03-17T15:14:26;12.44;71.68
47861;HTU21D;33620;52.340;5.984;2024-03-17T15:16:52;12.45;71.83
47861;HTU21D;33620;52.340;5.984;2024-03-17T15:19:17;12.47;72.62
47861;HTU21D;33620;52.340;5.984;2024-03-17T15:21:43;12.47;72.17
47861;HTU21D;33620;52.340;5.984;2024-03-17T15:24:08;12.49;72.89
47861;HTU21D;33620;52.340;5.984;2024-03-17T15:26:33;12.48;72.27
47861;HTU21D;33620;52.340;5.984;2024-03-17T15:28:59;12.45;71.65
47861;HTU21D;33620;52.340;5.984;2024-03-17T15:31:29;12.45;71.69
47861;HTU21D;33620;52.340;5.984;2024-03-17T15:33:54;12.46;71.44
47861;HTU21D;33620;52.340;5.984;2024-03-17T15:36:22;12.47;71.51
47861;HTU21D;33620;52.340;5.984;2024-03-17T15:38:49;12.46;71.30
47861;HTU21D;33620;52.340;5.984;2024-03-17T15:41:15;12.49;71.43
47861;HTU21D;33620;52.340;5.984;2024-03-17T15:43:40;12.46;70.93
47861;HTU21D;33620;52.340;5.984;2024-03-17T15:46:15;12.47;71.10
47861;HTU21D;33620;52.340;5.984;2024-03-17T15:48:42;12.50;71.50